Hlavní strana
METAR-TAF:

METAR-TAF

Letiště :

Osijek, Chorvatsko

zeměpisná šířka: 45-27N, zeměpisná délka: 018-48E, výška: 88 m

Aktuální stav počasí

Zpráva byla vytvořena před 27 minutami, v 07:30 UTC
Jihojihozápadní vítr 7 kt
Teplota 27°C
Vlhkost vzduchu 66%
Tlak 1016 hPa
Viditelnost 10 km a více
Žádná oblačnost pod 1500 m, nevyskytují se cumulonimby.

METAR: LDOS 190730Z 21007KT CAVOK 27/20 Q1016

Čas: 09:57 (07:57 UTC)

Předpověď počasí

Zpráva byla vytvořena před 2 hodinami a 32 minutami, v 05:25 UTC
Předpověď platná od 19 v 06 UTC do 20 v 06 UTC
Východojihovýchodní vítr 5 kt
Viditelnost 10 km a více
Žádná oblačnost pod 1500 m, nevyskytují se cumulonimby.
Dočasný
od 19 v 09 UTC do 19 v 17 UTC
Východojihovýchodní vítr 10 kt
Změna
od 19 v 20 UTC do 19 v 22 UTC
Západní vítr 8 kt

TAF: LDOS 190525Z 1906/2006 12005KT CAVOK TX35/1914Z TN22/2003Z TEMPO 1909/1917 11010KT BECMG 1920/1922 27008KT

Stav a předpovědi počasí z více než 4 000 letišť (zprávy METAR a TAF).

Červené a žluté tečky na mapě představují dostupné meteorologické stanice.

Když kurzor umístíte na tečku, zobrazí se název stanice.

Pak kliknutím zobrazíte stav a předpověď počasí.

Chcete-li změnit mapu, kliknutím na zelené tlačítko se znaménkem +mapu přiblížíte, kliknutím na zelené tlačítko se znaménkem – mapu oddálíte a kliknutím na zelené šipky přejdete na sousední mapy.


METAR-TAF: